11:22
Airports
History
Links
Donate
Help keep this website running!
PayPal
Bitcoin
This page is community maintained. The information is intended for PC simulator navigation or reference.
Always use approved charts for navigation.
9H2
Adams - Private
Adams - Private (9H2)
Royalton, Illinois, United States (62983)
4
Lat/Lng:37° 54' 10.18" N / 89° 8' 15.28" W
37.902828 / -89.137579
Elevation:410'ft / 125mMSL
ID / ICAO:9H2
Runways:1
Longest:36-18
Grass 515m / 1,690ft
Nearby Weather10:52 GMT 2017-10-18
Nearby weather at KMDH, Southern Illinois located 10.6 nautical miles from 9H2
Altimeter: 30.24
Visibility: 10.0 statute miles
Wind: 0 knots (from 000°)
Temp: 4°c / 39°f
Humidity: 100.0%

METAR: KMDH 181052Z AUTO 00000KT 10SM CLR 04/04 A3024 RMK AO2 SLP239 T00390039

(Powered by phpweather)
Nearby VORs <50NM
Nearby NDBs
Runway 36 / 18
Dimensions:515 x 21.3m 1690' x 70'ft
Surface:Grass
Runway 36 [A]Runway 18 [B]
Heading:001°TH 181°TH
Lat:
Lng:
37° 54' 1.79"N
89° 8' 15.47"W
37° 54' 18.57"N
89° 8' 15.1"W
User Notes and Comments
37° 54' 10.18" N / 89° 8' 15.28" W
Distance To
Airport ID:
Nearby Airports
4 Hemmer Rla 6.3 NM
H60 NW 325°
(C) Southern Illinois 10.6 NM
KMDH ( WX ) SW 215°
(C) Williamson County Rgnl 12.3 NM
KMWA ( WX ) SE 145°
(U) Pinckneyville-du Quoin 13.2 NM
KPJY WNW 293°
(U) Benton Muni 13.3 NM
H96 NE 56°
4 Bessie Rla 18.6 NM
H16 ENE 69°
4 Lambert 21.6 NM
7H9 NW 305°
VFR Chart
Flight Planning at SkyVector.com